createdAt,value
2019-06-26T00:02:05.470Z,6.92
2019-06-26T00:04:35.986Z,6.30
2019-06-26T00:07:06.330Z,7.00
2019-06-26T00:09:36.649Z,5.95
2019-06-26T00:12:08.518Z,6.47
2019-06-26T00:14:39.030Z,6.72
2019-06-26T00:17:09.478Z,6.28
2019-06-26T00:19:39.899Z,6.35
2019-06-26T00:22:10.020Z,6.40
2019-06-26T00:24:40.423Z,7.10
2019-06-26T00:27:10.342Z,6.65
2019-06-26T00:29:40.496Z,7.08
2019-06-26T00:32:10.743Z,7.10
2019-06-26T00:34:40.959Z,7.75
2019-06-26T00:37:11.280Z,8.20
2019-06-26T00:39:41.718Z,7.65
2019-06-26T00:42:12.125Z,7.87
2019-06-26T00:44:42.352Z,7.65
2019-06-26T00:47:12.672Z,7.60
2019-06-26T00:49:43.034Z,8.05
2019-06-26T00:52:13.226Z,7.62
2019-06-26T00:54:43.440Z,7.65
2019-06-26T00:57:13.770Z,7.78
2019-06-26T00:59:43.644Z,7.87
2019-06-26T01:02:13.559Z,8.25
2019-06-26T01:04:48.197Z,7.92
2019-06-26T01:07:18.516Z,7.75
2019-06-26T01:09:48.790Z,8.03
2019-06-26T01:12:19.069Z,8.40
2019-06-26T01:14:49.289Z,8.78
2019-06-26T01:17:19.533Z,7.97
2019-06-26T01:19:49.844Z,8.38
2019-06-26T01:22:19.760Z,7.22
2019-06-26T01:24:49.662Z,8.70
2019-06-26T01:27:19.984Z,7.67
2019-06-26T01:29:51.224Z,8.75
2019-06-26T01:32:21.556Z,7.87
2019-06-26T01:34:51.792Z,8.30
2019-06-26T01:37:21.720Z,8.50
2019-06-26T01:39:51.913Z,8.70
2019-06-26T01:42:22.454Z,7.97
2019-06-26T01:44:52.676Z,8.68
2019-06-26T01:47:22.910Z,8.25
2019-06-26T01:49:52.802Z,8.08
2019-06-26T01:52:23.037Z,8.43
2019-06-26T01:54:53.252Z,8.50
2019-06-26T01:57:23.201Z,8.48
2019-06-26T01:59:53.475Z,7.97
2019-06-26T02:02:23.411Z,8.30
2019-06-26T02:04:53.753Z,8.33
2019-06-26T02:07:24.021Z,8.58
2019-06-26T02:09:54.151Z,9.30
2019-06-26T02:12:24.392Z,8.58
2019-06-26T02:14:54.423Z,10.00
2019-06-26T02:17:24.745Z,8.78
2019-06-26T02:19:54.793Z,8.38
2019-06-26T02:22:24.961Z,8.80
2019-06-26T02:24:55.172Z,8.95
2019-06-26T02:27:26.609Z,8.85
2019-06-26T02:29:56.410Z,9.30
2019-06-26T02:32:26.625Z,8.53
2019-06-26T02:34:56.836Z,8.63
2019-06-26T02:37:27.054Z,8.43
2019-06-26T02:39:57.177Z,8.95
2019-06-26T02:42:27.495Z,9.15
2019-06-26T02:44:57.397Z,9.45
2019-06-26T02:47:27.638Z,9.20
2019-06-26T02:49:57.836Z,9.63
2019-06-26T02:52:28.075Z,9.00
2019-06-26T02:54:57.980Z,9.00
2019-06-26T02:57:27.941Z,8.65
2019-06-26T02:59:59.322Z,8.43
2019-06-26T03:02:29.662Z,9.30
2019-06-26T03:04:59.867Z,8.93
2019-06-26T03:07:30.212Z,8.65
2019-06-26T03:10:00.218Z,8.85
2019-06-26T03:12:30.450Z,9.03
2019-06-26T03:15:08.732Z,8.75
2019-06-26T03:17:32.778Z,10.38
2019-06-26T03:20:03.933Z,9.03
2019-06-26T03:22:33.895Z,9.53
2019-06-26T03:25:05.800Z,9.78
2019-06-26T03:27:36.130Z,9.73
2019-06-26T03:30:06.977Z,9.78
2019-06-26T03:32:37.368Z,10.05
2019-06-26T03:35:08.474Z,10.13
2019-06-26T03:37:38.466Z,9.45
2019-06-26T03:40:09.152Z,9.70
2019-06-26T03:42:39.399Z,8.80
2019-06-26T03:45:24.452Z,10.05
2019-06-26T03:47:43.088Z,9.43
2019-06-26T03:50:13.569Z,10.38
2019-06-26T03:52:43.549Z,9.98
2019-06-26T03:55:14.345Z,9.78
2019-06-26T03:57:44.597Z,10.05
2019-06-26T04:00:15.104Z,10.38
2019-06-26T04:02:45.033Z,10.13
2019-06-26T04:05:15.032Z,9.78
2019-06-26T04:07:45.379Z,10.63
2019-06-26T04:10:16.099Z,18.02
2019-06-26T04:12:46.411Z,13.95
2019-06-26T04:15:16.426Z,10.68
2019-06-26T04:17:46.324Z,10.95
2019-06-26T04:20:16.496Z,9.83
2019-06-26T04:22:47.659Z,10.43
2019-06-26T04:25:19.235Z,8.93
2019-06-26T04:27:49.473Z,9.55
2019-06-26T04:30:20.255Z,10.85
2019-06-26T04:32:50.690Z,11.85
2019-06-26T04:35:20.689Z,12.88
2019-06-26T04:37:50.543Z,13.60
2019-06-26T04:40:21.088Z,11.03
2019-06-26T04:42:51.428Z,10.38
2019-06-26T04:45:22.645Z,10.55
2019-06-26T04:47:52.950Z,10.18
2019-06-26T04:50:23.299Z,11.12
2019-06-26T04:52:53.710Z,9.60
2019-06-26T04:55:24.034Z,11.73
2019-06-26T04:57:54.345Z,10.82
2019-06-26T05:00:25.068Z,10.63
2019-06-26T05:02:55.302Z,9.85
2019-06-26T05:05:38.542Z,10.70
2019-06-26T05:07:57.179Z,11.07
2019-06-26T05:10:27.511Z,12.58
2019-06-26T05:12:57.932Z,11.40
2019-06-26T05:15:27.981Z,10.88
2019-06-26T05:17:58.283Z,9.38
2019-06-26T05:20:28.587Z,9.90
2019-06-26T05:22:59.369Z,10.75
2019-06-26T05:25:29.378Z,10.98
2019-06-26T05:27:59.676Z,10.70
2019-06-26T05:30:29.994Z,10.43
2019-06-26T05:33:00.260Z,10.93
2019-06-26T05:35:30.425Z,11.18
2019-06-26T05:38:02.175Z,11.80
2019-06-26T05:40:33.056Z,10.72
2019-06-26T05:43:03.455Z,10.70
2019-06-26T05:45:33.707Z,11.60
2019-06-26T05:48:04.084Z,10.68
2019-06-26T05:50:34.228Z,10.63
2019-06-26T05:53:04.630Z,10.43
2019-06-26T05:55:34.870Z,10.10
2019-06-26T05:58:05.270Z,10.23
2019-06-26T06:00:35.506Z,10.88
2019-06-26T06:03:05.834Z,10.50
2019-06-26T06:05:37.060Z,10.28
2019-06-26T06:08:07.071Z,10.00
2019-06-26T06:10:37.604Z,9.80
2019-06-26T06:13:07.855Z,9.98
2019-06-26T06:15:38.086Z,10.23
2019-06-26T06:18:08.429Z,10.30
2019-06-26T06:20:39.539Z,9.58
2019-06-26T06:23:09.796Z,9.98
2019-06-26T06:25:40.107Z,9.78
2019-06-26T06:28:10.419Z,9.65
2019-06-26T06:30:40.671Z,10.13
2019-06-26T06:33:10.996Z,9.35
2019-06-26T06:35:41.440Z,9.83
2019-06-26T06:38:11.746Z,9.03
2019-06-26T06:40:42.183Z,9.00
2019-06-26T06:43:13.335Z,8.20
2019-06-26T06:45:43.827Z,8.75
2019-06-26T06:48:14.062Z,8.33
2019-06-26T06:50:44.353Z,8.18
2019-06-26T06:53:14.629Z,8.78
2019-06-26T06:55:44.877Z,8.40
2019-06-26T06:58:14.834Z,8.45
2019-06-26T07:00:44.749Z,8.38
2019-06-26T07:03:14.955Z,8.33
2019-06-26T07:05:45.118Z,8.65
2019-06-26T07:08:15.362Z,8.20
2019-06-26T07:10:45.752Z,8.23
2019-06-26T07:13:16.071Z,7.90
2019-06-26T07:15:46.350Z,6.97
2019-06-26T07:18:16.731Z,6.60
2019-06-26T07:20:46.718Z,6.87
2019-06-26T07:23:18.110Z,6.45
2019-06-26T07:25:48.620Z,7.17
2019-06-26T07:28:18.780Z,6.70
2019-06-26T07:30:49.157Z,6.90
2019-06-26T07:33:19.311Z,7.12
2019-06-26T07:35:49.707Z,6.80
2019-06-26T07:38:20.051Z,7.10
2019-06-26T07:40:50.359Z,6.67
2019-06-26T07:43:20.572Z,7.20
2019-06-26T07:45:50.874Z,7.70
2019-06-26T07:48:21.073Z,6.58
2019-06-26T07:50:51.369Z,7.78
2019-06-26T07:53:21.623Z,7.75
2019-06-26T07:55:52.101Z,7.65
2019-06-26T07:58:22.727Z,7.58
2019-06-26T08:00:52.909Z,8.23
2019-06-26T08:03:23.475Z,7.42
2019-06-26T08:05:53.605Z,7.35
2019-06-26T08:08:25.667Z,7.55
2019-06-26T08:10:55.917Z,7.83
2019-06-26T08:13:26.232Z,8.05
2019-06-26T08:15:56.551Z,7.62
2019-06-26T08:18:26.765Z,7.67
2019-06-26T08:21:11.605Z,7.55
2019-06-26T08:23:28.589Z,7.80
2019-06-26T08:25:58.959Z,7.58
2019-06-26T08:28:29.168Z,7.17
2019-06-26T08:30:59.385Z,7.62
2019-06-26T08:33:29.267Z,7.20
2019-06-26T08:35:59.172Z,7.40
2019-06-26T08:38:29.329Z,7.60
2019-06-26T08:40:59.228Z,7.87
2019-06-26T08:43:31.506Z,6.95
2019-06-26T08:46:00.801Z,7.20
2019-06-26T08:48:39.570Z,8.25
2019-06-26T08:53:31.611Z,7.12
2019-06-26T08:56:01.833Z,8.03
2019-06-26T08:58:31.684Z,7.75
2019-06-26T09:01:01.980Z,7.97
2019-06-26T09:03:32.376Z,7.80
2019-06-26T09:06:02.585Z,7.80
2019-06-26T09:08:32.787Z,8.28
2019-06-26T09:11:03.235Z,8.35
2019-06-26T09:13:33.591Z,7.75
2019-06-26T09:16:03.925Z,7.70
2019-06-26T09:18:35.759Z,7.80
2019-06-26T09:21:06.261Z,7.90
2019-06-26T09:23:36.225Z,8.10
2019-06-26T09:26:06.503Z,7.87
2019-06-26T09:28:36.478Z,8.00
2019-06-26T09:31:07.040Z,7.78
2019-06-26T09:33:39.226Z,7.95
2019-06-26T09:36:09.529Z,8.50
2019-06-26T09:38:39.900Z,8.68
2019-06-26T09:41:11.204Z,8.55
2019-06-26T09:43:41.620Z,8.45
2019-06-26T09:46:11.863Z,8.55
2019-06-26T09:48:52.113Z,8.70
2019-06-26T09:51:13.747Z,7.87
2019-06-26T09:53:47.673Z,7.85
2019-06-26T09:56:15.550Z,8.50
2019-06-26T09:58:46.267Z,7.40
2019-06-26T10:01:16.568Z,7.62
2019-06-26T10:03:47.201Z,8.13
2019-06-26T10:06:34.557Z,7.62
2019-06-26T10:09:12.203Z,7.70
2019-06-26T10:11:48.322Z,6.75
2019-06-26T10:14:23.853Z,7.33
2019-06-26T10:16:53.976Z,7.35
2019-06-26T10:19:23.877Z,7.90
2019-06-26T10:21:54.097Z,7.22
2019-06-26T10:24:24.331Z,7.47
2019-06-26T10:26:54.688Z,7.40
2019-06-26T10:29:25.095Z,7.95
2019-06-26T10:31:55.106Z,7.12
2019-06-26T10:34:25.441Z,6.92
2019-06-26T10:36:55.857Z,6.90
2019-06-26T10:39:26.083Z,7.22
2019-06-26T10:41:56.106Z,7.00
2019-06-26T10:44:26.324Z,6.58
2019-06-26T10:46:57.329Z,6.65
2019-06-26T10:49:28.035Z,6.60
2019-06-26T10:51:58.421Z,5.47
2019-06-26T10:54:28.350Z,5.90
2019-06-26T10:57:00.823Z,5.37
2019-06-26T10:59:31.142Z,6.00
2019-06-26T11:02:01.155Z,5.58
2019-06-26T11:04:31.444Z,5.65
2019-06-26T11:07:01.836Z,5.75
2019-06-26T11:09:32.130Z,5.83
2019-06-26T11:12:02.055Z,5.00
2019-06-26T11:14:32.313Z,5.30
2019-06-26T11:17:02.353Z,5.83
2019-06-26T11:19:43.188Z,6.12
2019-06-26T11:22:04.850Z,6.22
2019-06-26T11:24:35.263Z,6.00
2019-06-26T11:27:05.702Z,5.80
2019-06-26T11:29:35.710Z,5.70
2019-06-26T11:32:09.326Z,5.10
2019-06-26T11:34:37.824Z,5.95
2019-06-26T11:37:07.841Z,5.22
2019-06-26T11:39:38.256Z,5.90
2019-06-26T11:42:08.535Z,5.62
2019-06-26T11:44:39.040Z,5.30
2019-06-26T11:47:09.565Z,5.30
2019-06-26T11:49:41.028Z,6.10
2019-06-26T11:52:11.476Z,6.35
2019-06-26T11:54:41.952Z,5.60
2019-06-26T11:57:12.173Z,5.93
2019-06-26T11:59:42.801Z,5.30
2019-06-26T12:02:13.429Z,5.83
2019-06-26T12:04:43.719Z,6.00
2019-06-26T12:07:15.973Z,5.20
2019-06-26T12:09:46.000Z,5.42
2019-06-26T12:12:15.988Z,5.20
2019-06-26T12:14:46.217Z,5.55
2019-06-26T12:17:16.821Z,4.93
2019-06-26T12:19:47.185Z,5.37
2019-06-26T12:22:17.478Z,5.13
2019-06-26T12:24:47.589Z,5.17
2019-06-26T12:27:17.598Z,4.83
2019-06-26T12:29:47.938Z,5.37
2019-06-26T12:32:26.193Z,5.05
2019-06-26T12:34:57.909Z,5.15
2019-06-26T12:37:37.471Z,5.35
2019-06-26T12:40:03.452Z,5.05
2019-06-26T12:42:36.754Z,4.87
2019-06-26T12:45:07.568Z,4.90
2019-06-26T12:47:38.697Z,5.50
2019-06-26T12:52:38.551Z,5.33
2019-06-26T12:55:12.244Z,4.77
2019-06-26T12:57:42.845Z,4.42
2019-06-26T13:00:14.912Z,4.53
2019-06-26T13:02:45.290Z,5.10
2019-06-26T13:05:17.097Z,4.97
2019-06-26T13:07:47.656Z,5.22
2019-06-26T13:10:18.217Z,5.03
2019-06-26T13:12:48.128Z,4.90
2019-06-26T13:15:18.340Z,4.58
2019-06-26T13:17:48.919Z,4.90
2019-06-26T13:20:21.998Z,4.78
2019-06-26T13:22:52.282Z,4.92
2019-06-26T13:25:22.262Z,5.00
2019-06-26T13:27:52.761Z,4.53
2019-06-26T13:30:25.773Z,5.10
2019-06-26T13:32:55.929Z,4.45
2019-06-26T13:35:38.105Z,5.23
2019-06-26T13:38:08.462Z,5.05
2019-06-26T13:40:40.958Z,5.08
2019-06-26T13:43:10.370Z,4.83
2019-06-26T13:45:42.481Z,4.85
2019-06-26T13:48:14.294Z,5.22
2019-06-26T13:50:44.680Z,4.97
2019-06-26T13:53:14.801Z,4.87
2019-06-26T13:55:45.022Z,4.60
2019-06-26T13:58:27.030Z,4.23
2019-06-26T14:00:57.251Z,5.37
2019-06-26T14:03:27.481Z,5.07
2019-06-26T14:05:57.718Z,4.90
2019-06-26T14:08:27.573Z,4.87
2019-06-26T14:10:57.511Z,5.15
2019-06-26T14:13:27.682Z,4.70
2019-06-26T14:15:58.121Z,4.57
2019-06-26T14:18:31.491Z,5.20
2019-06-26T14:21:01.495Z,4.53
2019-06-26T14:23:31.882Z,5.62
2019-06-26T14:26:02.280Z,5.20
2019-06-26T14:28:32.563Z,4.97
2019-06-26T14:31:02.507Z,5.43
2019-06-26T14:33:33.040Z,4.95
2019-06-26T14:36:06.619Z,5.15
2019-06-26T14:38:37.663Z,4.92
2019-06-26T14:41:07.989Z,5.10
2019-06-26T14:43:38.228Z,5.03
2019-06-26T14:46:08.534Z,5.47
2019-06-26T14:48:38.822Z,4.73
2019-06-26T14:51:09.195Z,5.10
2019-06-26T14:53:39.164Z,17.63
2019-06-26T14:56:19.250Z,5.08
2019-06-26T14:58:52.850Z,4.90
2019-06-26T15:01:22.766Z,5.33
2019-06-26T15:03:52.983Z,5.03
2019-06-26T15:06:23.250Z,4.93
2019-06-26T15:08:53.683Z,5.10
2019-06-26T15:11:23.655Z,5.80
2019-06-26T15:13:53.672Z,5.62
2019-06-26T15:16:24.067Z,5.08
2019-06-26T15:18:54.445Z,5.60
2019-06-26T15:21:24.707Z,5.83
2019-06-26T15:23:54.759Z,5.53
2019-06-26T15:26:24.700Z,5.17
2019-06-26T15:28:55.037Z,5.15
2019-06-26T15:31:24.863Z,5.00
2019-06-26T15:33:55.175Z,5.62
2019-06-26T15:36:25.389Z,6.17
2019-06-26T15:38:59.050Z,5.65
2019-06-26T15:41:27.657Z,5.47
2019-06-26T15:43:59.198Z,6.10
2019-06-26T15:46:29.633Z,5.30
2019-06-26T15:49:00.040Z,6.22
2019-06-26T15:51:30.415Z,5.70
2019-06-26T15:54:02.797Z,5.87
2019-06-26T15:56:33.021Z,6.10
2019-06-26T15:59:03.311Z,6.17
2019-06-26T16:01:33.614Z,5.47
2019-06-26T16:04:04.062Z,4.87
2019-06-26T16:06:33.979Z,5.70
2019-06-26T16:09:05.482Z,6.00
2019-06-26T16:11:37.203Z,5.47
2019-06-26T16:14:07.656Z,5.92
2019-06-26T16:16:39.209Z,5.50
2019-06-26T16:19:11.407Z,5.97
2019-06-26T16:21:44.909Z,5.80
2019-06-26T16:24:15.316Z,5.92
2019-06-26T16:26:45.461Z,6.10
2019-06-26T16:29:15.885Z,5.85
2019-06-26T16:31:46.181Z,6.00
2019-06-26T16:34:17.701Z,5.25
2019-06-26T16:36:48.069Z,6.72
2019-06-26T16:39:18.292Z,6.47
2019-06-26T16:41:50.289Z,5.45
2019-06-26T16:44:21.111Z,6.35
2019-06-26T16:46:53.009Z,6.12
2019-06-26T16:49:23.272Z,6.00
2019-06-26T16:51:53.521Z,5.62
2019-06-26T16:54:23.420Z,5.83
2019-06-26T16:56:53.809Z,5.58
2019-06-26T16:59:24.079Z,6.10
2019-06-26T17:01:54.585Z,5.60
2019-06-26T17:04:24.944Z,5.53
2019-06-26T17:06:57.178Z,5.75
2019-06-26T17:09:27.466Z,5.92
2019-06-26T17:11:58.060Z,6.12
2019-06-26T17:14:28.307Z,6.27
2019-06-26T17:16:58.236Z,6.15
2019-06-26T17:19:28.236Z,6.10
2019-06-26T17:21:59.701Z,5.90
2019-06-26T17:24:29.788Z,5.95
2019-06-26T17:26:59.881Z,6.50
2019-06-26T17:29:31.806Z,7.00
2019-06-26T17:32:02.160Z,6.35
2019-06-26T17:34:32.310Z,6.50
2019-06-26T17:37:02.620Z,6.40
2019-06-26T17:39:32.542Z,6.95
2019-06-26T17:42:02.865Z,6.60
2019-06-26T17:44:33.191Z,6.53
2019-06-26T17:47:05.470Z,6.55
2019-06-26T17:49:35.210Z,7.03
2019-06-26T17:52:05.799Z,6.87
2019-06-26T17:54:36.058Z,6.25
2019-06-26T17:57:06.452Z,6.70
2019-06-26T17:59:36.471Z,7.25
2019-06-26T18:02:06.843Z,7.15
2019-06-26T18:04:37.133Z,7.95
2019-06-26T18:07:07.431Z,7.78
2019-06-26T18:09:37.740Z,7.30
2019-06-26T18:12:08.058Z,7.15
2019-06-26T18:14:38.040Z,6.97
2019-06-26T18:17:21.473Z,7.80
2019-06-26T18:19:40.127Z,7.55
2019-06-26T18:22:11.714Z,7.55
2019-06-26T18:24:42.050Z,7.97
2019-06-26T18:27:12.314Z,7.90
2019-06-26T18:29:44.114Z,8.40
2019-06-26T18:32:15.488Z,8.40
2019-06-26T18:34:46.888Z,8.20
2019-06-26T18:37:17.462Z,8.63
2019-06-26T18:39:47.487Z,8.25
2019-06-26T18:42:19.542Z,7.65
2019-06-26T18:44:49.744Z,7.45
2019-06-26T18:47:20.039Z,7.62
2019-06-26T18:49:50.644Z,8.13
2019-06-26T18:52:22.139Z,7.72
2019-06-26T18:54:52.241Z,8.50
2019-06-26T18:57:22.129Z,8.48
2019-06-26T18:59:52.348Z,8.78
2019-06-26T19:02:22.770Z,8.80
2019-06-26T19:04:54.219Z,9.08
2019-06-26T19:07:27.608Z,9.00
2019-06-26T19:09:58.084Z,8.70
2019-06-26T19:12:28.144Z,9.08
2019-06-26T19:14:58.186Z,9.35
2019-06-26T19:17:28.476Z,9.38
2019-06-26T19:19:58.924Z,9.15
2019-06-26T19:22:29.554Z,9.78
2019-06-26T19:24:59.714Z,9.63
2019-06-26T19:27:30.482Z,9.85
2019-06-26T19:30:00.824Z,8.83
2019-06-26T19:32:31.206Z,9.13
2019-06-26T19:35:08.338Z,10.15
2019-06-26T19:37:33.837Z,9.25
2019-06-26T19:40:08.281Z,8.63
2019-06-26T19:42:36.877Z,9.28
2019-06-26T19:45:08.572Z,9.73
2019-06-26T19:47:39.630Z,9.98
2019-06-26T19:50:11.340Z,9.88
2019-06-26T19:52:41.614Z,10.00
2019-06-26T19:55:12.119Z,9.23
2019-06-26T19:57:42.561Z,9.80
2019-06-26T20:00:13.166Z,8.98
2019-06-26T20:02:43.415Z,10.15
2019-06-26T20:05:14.121Z,9.65
2019-06-26T20:07:44.459Z,10.48
2019-06-26T20:10:15.551Z,10.15
2019-06-26T20:12:45.817Z,10.07
2019-06-26T20:15:16.140Z,9.13
2019-06-26T20:17:46.364Z,9.68
2019-06-26T20:20:17.716Z,9.40
2019-06-26T20:22:47.635Z,10.08
2019-06-26T20:25:18.025Z,9.75
2019-06-26T20:27:48.259Z,10.03
2019-06-26T20:30:21.331Z,10.23
2019-06-26T20:32:51.765Z,10.75
2019-06-26T20:35:21.923Z,10.18
2019-06-26T20:37:52.226Z,9.20
2019-06-26T20:40:23.049Z,9.25
2019-06-26T20:42:53.027Z,10.10
2019-06-26T20:45:23.186Z,9.85
2019-06-26T20:47:53.192Z,10.03
2019-06-26T20:50:23.096Z,9.38
2019-06-26T20:52:53.346Z,9.40
2019-06-26T20:55:23.692Z,9.95
2019-06-26T20:57:53.973Z,9.43
2019-06-26T21:00:23.900Z,9.05
2019-06-26T21:02:54.626Z,10.38
2019-06-26T21:05:28.622Z,10.25
2019-06-26T21:10:26.531Z,10.03
2019-06-26T21:12:56.750Z,10.45
2019-06-26T21:15:27.066Z,10.48
2019-06-26T21:17:57.421Z,10.58
2019-06-26T21:20:46.665Z,10.63
2019-06-26T21:23:18.757Z,10.65
2019-06-26T21:25:48.852Z,9.83
2019-06-26T21:28:19.209Z,10.50
2019-06-26T21:30:49.630Z,10.35
2019-06-26T21:33:19.656Z,10.32
2019-06-26T21:35:50.055Z,10.15
2019-06-26T21:38:20.448Z,10.23
2019-06-26T21:40:50.870Z,10.53
2019-06-26T21:43:21.105Z,10.80
2019-06-26T21:45:51.427Z,10.63
2019-06-26T21:48:21.661Z,10.05
2019-06-26T21:50:51.815Z,10.78
2019-06-26T21:53:22.138Z,10.58
2019-06-26T21:56:10.248Z,10.18
2019-06-26T21:58:58.224Z,9.90
2019-06-26T22:01:45.991Z,11.33
2019-06-26T22:04:33.749Z,11.03
2019-06-26T22:07:11.684Z,10.75
2019-06-26T22:09:52.295Z,11.03
2019-06-26T22:12:23.875Z,9.87
2019-06-26T22:14:53.929Z,10.72
2019-06-26T22:17:24.506Z,10.38
2019-06-26T22:19:54.835Z,9.83
2019-06-26T22:22:24.781Z,10.70
2019-06-26T22:24:55.057Z,10.30
2019-06-26T22:27:25.286Z,10.72
2019-06-26T22:29:55.189Z,10.23
2019-06-26T22:32:25.424Z,10.75
2019-06-26T22:34:55.875Z,10.35
2019-06-26T22:37:26.182Z,10.65
2019-06-26T22:39:56.552Z,10.38
2019-06-26T22:42:26.861Z,10.23
2019-06-26T22:44:57.249Z,10.70
2019-06-26T22:47:28.971Z,10.70
2019-06-26T22:49:59.312Z,10.65
2019-06-26T22:52:29.569Z,10.95
2019-06-26T22:54:59.839Z,10.32
2019-06-26T22:57:30.168Z,11.20
2019-06-26T23:00:00.501Z,11.25
2019-06-26T23:02:30.956Z,11.73
2019-06-26T23:05:01.162Z,11.53
2019-06-26T23:07:31.393Z,10.78
2019-06-26T23:10:01.776Z,11.10
2019-06-26T23:12:33.348Z,10.20
2019-06-26T23:15:04.873Z,10.60
2019-06-26T23:17:35.230Z,12.15
2019-06-26T23:20:07.678Z,10.35
2019-06-26T23:22:38.837Z,11.00
2019-06-26T23:25:09.595Z,11.85
2019-06-26T23:27:40.600Z,11.78
2019-06-26T23:30:20.418Z,11.15
2019-06-26T23:32:50.859Z,11.63
2019-06-26T23:35:21.180Z,11.90
2019-06-26T23:37:51.522Z,11.20
2019-06-26T23:40:21.907Z,10.85
2019-06-26T23:42:52.047Z,11.03
2019-06-26T23:45:22.264Z,11.30
2019-06-26T23:47:52.385Z,12.37
2019-06-26T23:50:22.600Z,12.30
2019-06-26T23:52:52.823Z,11.70
2019-06-26T23:55:25.891Z,12.40
2019-06-26T23:57:59.337Z,12.03
